createdAt,value
2018-01-19T00:01:16.799Z,63.50
2018-01-19T00:03:45.114Z,63.80
2018-01-19T00:06:13.410Z,63.70
2018-01-19T00:08:41.719Z,63.60
2018-01-19T00:11:10.326Z,63.70
2018-01-19T00:13:38.309Z,63.70
2018-01-19T00:16:07.219Z,63.40
2018-01-19T00:18:35.150Z,63.50
2018-01-19T00:21:03.471Z,63.70
2018-01-19T00:23:31.778Z,63.50
2018-01-19T00:26:00.098Z,63.70
2018-01-19T00:28:28.399Z,63.70
2018-01-19T00:30:56.728Z,64.20
2018-01-19T00:33:25.031Z,64.30
2018-01-19T00:35:53.362Z,64.30
2018-01-19T00:38:21.679Z,64.80
2018-01-19T00:40:49.998Z,64.60
2018-01-19T00:43:18.294Z,64.40
2018-01-19T00:45:46.618Z,63.80
2018-01-19T00:48:15.015Z,63.60
2018-01-19T00:50:43.343Z,63.70
2018-01-19T00:53:11.643Z,64.30
2018-01-19T00:55:39.963Z,64.10
2018-01-19T00:58:08.298Z,64.00
2018-01-19T01:00:36.610Z,63.90
2018-01-19T01:03:04.915Z,64.30
2018-01-19T01:05:33.239Z,64.40
2018-01-19T01:08:01.556Z,64.20
2018-01-19T01:10:29.878Z,64.00
2018-01-19T01:12:58.215Z,65.30
2018-01-19T01:15:26.541Z,66.60
2018-01-19T01:17:54.857Z,67.10
2018-01-19T01:20:23.181Z,66.30
2018-01-19T01:22:51.483Z,67.40
2018-01-19T01:25:19.807Z,67.00
2018-01-19T01:27:48.208Z,65.70
2018-01-19T01:30:16.542Z,64.60
2018-01-19T01:32:44.848Z,65.40
2018-01-19T01:35:13.286Z,66.10
2018-01-19T01:37:41.587Z,65.80
2018-01-19T01:40:09.911Z,64.90
2018-01-19T01:42:38.223Z,64.80
2018-01-19T01:45:06.527Z,65.90
2018-01-19T01:47:34.896Z,66.00
2018-01-19T01:50:03.200Z,66.20
2018-01-19T01:52:31.538Z,66.50
2018-01-19T01:54:59.845Z,65.90
2018-01-19T01:57:28.903Z,65.30
2018-01-19T01:59:56.448Z,63.80
2018-01-19T02:02:24.827Z,64.20
2018-01-19T02:04:53.128Z,65.30
2018-01-19T02:07:21.448Z,65.20
2018-01-19T02:09:49.758Z,63.70
2018-01-19T02:12:18.082Z,64.90
2018-01-19T02:14:46.398Z,65.10
2018-01-19T02:17:14.723Z,65.40
2018-01-19T02:19:43.068Z,65.70
2018-01-19T02:22:11.378Z,66.10
2018-01-19T02:24:39.681Z,65.30
2018-01-19T02:27:08.063Z,66.20
2018-01-19T02:29:36.362Z,66.20
2018-01-19T02:32:03.936Z,67.20
2018-01-19T02:34:31.864Z,66.00
2018-01-19T02:37:00.191Z,65.80
2018-01-19T02:39:28.502Z,66.10
2018-01-19T02:41:56.818Z,66.00
2018-01-19T02:44:25.857Z,66.10
2018-01-19T02:46:53.447Z,65.60
2018-01-19T02:49:21.759Z,65.10
2018-01-19T02:51:50.188Z,65.30
2018-01-19T02:54:18.490Z,65.10
2018-01-19T02:56:46.814Z,64.50
2018-01-19T02:59:15.179Z,63.90
2018-01-19T03:01:43.501Z,62.80
2018-01-19T03:04:11.874Z,63.40
2018-01-19T03:06:40.179Z,64.40
2018-01-19T03:09:08.517Z,64.20
2018-01-19T03:11:36.870Z,63.40
2018-01-19T03:14:05.164Z,62.80
2018-01-19T03:16:33.565Z,62.70
2018-01-19T03:19:01.888Z,62.20
2018-01-19T03:21:30.233Z,61.70
2018-01-19T03:23:58.596Z,61.60
2018-01-19T03:26:27.031Z,63.40
2018-01-19T03:28:55.456Z,63.00
2018-01-19T03:31:23.764Z,63.20
2018-01-19T03:33:52.108Z,62.60
2018-01-19T03:36:20.578Z,62.30
2018-01-19T03:38:48.938Z,61.80
2018-01-19T03:41:16.865Z,62.70
2018-01-19T03:43:45.187Z,63.00
2018-01-19T03:46:12.730Z,62.60
2018-01-19T03:48:40.689Z,64.20
2018-01-19T03:51:09.093Z,64.90
2018-01-19T03:53:37.422Z,65.50
2018-01-19T03:56:06.480Z,65.90
2018-01-19T03:58:34.045Z,65.10
2018-01-19T04:01:02.354Z,64.00
2018-01-19T04:03:30.826Z,63.80
2018-01-19T04:05:59.126Z,62.80
2018-01-19T04:08:27.450Z,62.60
2018-01-19T04:10:55.762Z,62.20
2018-01-19T04:13:24.871Z,62.40
2018-01-19T04:15:53.173Z,62.10
2018-01-19T04:18:20.746Z,62.20
2018-01-19T04:20:49.055Z,62.30
2018-01-19T04:23:17.400Z,61.70
2018-01-19T04:25:45.714Z,61.50
2018-01-19T04:28:13.271Z,61.50
2018-01-19T04:30:41.220Z,61.60
2018-01-19T04:33:09.526Z,61.60
2018-01-19T04:35:37.846Z,62.00
2018-01-19T04:38:06.145Z,61.40
2018-01-19T04:40:34.616Z,61.60
2018-01-19T04:43:02.910Z,61.60
2018-01-19T04:45:31.233Z,60.90
2018-01-19T04:47:59.548Z,60.30
2018-01-19T04:50:27.865Z,60.40
2018-01-19T04:52:56.174Z,60.40
2018-01-19T04:55:24.496Z,60.20
2018-01-19T04:57:53.473Z,59.80
2018-01-19T05:00:21.426Z,59.50
2018-01-19T05:02:49.727Z,59.60
2018-01-19T05:05:18.051Z,59.50
2018-01-19T05:07:46.359Z,59.10
2018-01-19T05:10:14.688Z,59.50
2018-01-19T05:12:43.011Z,59.70
2018-01-19T05:15:11.338Z,59.50
2018-01-19T05:17:39.660Z,59.40
2018-01-19T05:20:07.985Z,59.50
2018-01-19T05:22:36.291Z,59.90
2018-01-19T05:25:04.610Z,59.50
2018-01-19T05:27:32.962Z,60.00
2018-01-19T05:30:01.278Z,59.50
2018-01-19T05:32:29.613Z,59.10
2018-01-19T05:34:58.092Z,58.40
2018-01-19T05:37:26.399Z,57.70
2018-01-19T05:39:55.473Z,59.00
2018-01-19T05:42:23.775Z,58.10
2018-01-19T05:44:52.098Z,58.20
2018-01-19T05:47:19.744Z,57.20
2018-01-19T05:49:48.050Z,56.80
2018-01-19T05:52:16.374Z,56.40
2018-01-19T05:54:44.775Z,56.30
2018-01-19T05:57:13.100Z,57.10
2018-01-19T05:59:42.165Z,58.30
2018-01-19T06:02:09.725Z,57.40
2018-01-19T06:04:38.034Z,57.10
2018-01-19T06:07:06.348Z,57.00
2018-01-19T06:09:33.895Z,57.00
2018-01-19T06:12:01.855Z,56.70
2018-01-19T06:14:30.156Z,56.30
2018-01-19T06:16:58.483Z,56.40
2018-01-19T06:19:26.786Z,56.70
2018-01-19T06:21:55.110Z,56.30
2018-01-19T06:24:23.466Z,55.90
2018-01-19T06:26:51.795Z,55.00
2018-01-19T06:29:20.842Z,57.20
2018-01-19T06:31:49.240Z,58.20
2018-01-19T06:34:16.787Z,57.60
2018-01-19T06:36:45.116Z,56.60
2018-01-19T06:39:13.453Z,56.40
2018-01-19T06:41:41.936Z,56.20
2018-01-19T06:44:10.241Z,56.20
2018-01-19T06:46:38.650Z,55.90
2018-01-19T06:49:06.964Z,55.70
2018-01-19T06:51:35.340Z,55.70
2018-01-19T06:54:03.618Z,55.60
2018-01-19T06:56:31.949Z,55.40
2018-01-19T06:59:00.994Z,55.00
2018-01-19T07:01:28.558Z,54.70
2018-01-19T07:03:56.933Z,54.60
2018-01-19T07:06:24.500Z,54.60
2018-01-19T07:08:52.427Z,54.60
2018-01-19T07:11:20.742Z,54.30
2018-01-19T07:13:49.043Z,53.90
2018-01-19T07:16:17.358Z,53.70
2018-01-19T07:18:45.728Z,53.80
2018-01-19T07:21:14.036Z,53.80
2018-01-19T07:23:42.358Z,53.00
2018-01-19T07:26:11.479Z,54.00
2018-01-19T07:28:39.807Z,54.50
2018-01-19T07:31:07.459Z,54.10
2018-01-19T07:33:35.787Z,54.50
2018-01-19T07:36:04.087Z,54.00
2018-01-19T07:38:32.408Z,54.00
2018-01-19T07:41:00.719Z,53.60
2018-01-19T07:43:29.149Z,52.70
2018-01-19T07:45:57.575Z,52.40
2018-01-19T07:48:25.895Z,52.30
2018-01-19T07:50:54.198Z,51.60
2018-01-19T07:53:22.523Z,52.50
2018-01-19T07:55:50.832Z,52.90
2018-01-19T07:58:19.150Z,53.80
2018-01-19T08:00:47.576Z,53.10
2018-01-19T08:03:15.906Z,53.30
2018-01-19T08:05:44.222Z,53.50
2018-01-19T08:08:12.543Z,52.90
2018-01-19T08:10:40.863Z,52.30
2018-01-19T08:13:09.183Z,51.70
2018-01-19T08:15:37.559Z,51.80
2018-01-19T08:18:06.075Z,52.20
2018-01-19T08:20:34.378Z,52.10
2018-01-19T08:23:02.699Z,51.60
2018-01-19T08:25:31.007Z,51.20
2018-01-19T08:27:59.871Z,51.30
2018-01-19T08:30:27.422Z,51.40
2018-01-19T08:32:54.970Z,50.80
2018-01-19T08:35:23.270Z,50.40
2018-01-19T08:37:51.393Z,50.50
2018-01-19T08:40:19.942Z,51.60
2018-01-19T08:42:47.985Z,52.50
2018-01-19T08:45:16.307Z,52.30
2018-01-19T08:47:44.614Z,52.10
2018-01-19T08:50:12.937Z,52.60
2018-01-19T08:52:41.246Z,52.60
2018-01-19T08:55:09.588Z,52.80
2018-01-19T08:57:37.889Z,53.00
2018-01-19T09:00:06.958Z,54.60
2018-01-19T09:02:34.527Z,53.80
2018-01-19T09:05:02.086Z,54.20
2018-01-19T09:07:30.028Z,54.60
2018-01-19T09:09:58.366Z,54.10
2018-01-19T09:12:26.687Z,54.80
2018-01-19T09:14:55.012Z,54.20
2018-01-19T09:17:23.394Z,54.40
2018-01-19T09:19:51.713Z,54.90
2018-01-19T09:22:20.019Z,54.70
2018-01-19T09:24:48.347Z,55.00
2018-01-19T09:27:16.752Z,55.00
2018-01-19T09:29:45.082Z,55.30
2018-01-19T09:32:13.407Z,55.60
2018-01-19T09:34:41.814Z,56.00
2018-01-19T09:37:10.126Z,56.30
2018-01-19T09:39:38.611Z,56.40
2018-01-19T09:42:06.910Z,55.80
2018-01-19T09:44:35.260Z,55.50
2018-01-19T09:47:03.573Z,54.90
2018-01-19T09:49:31.888Z,54.00
2018-01-19T09:52:00.934Z,54.40
2018-01-19T09:54:28.909Z,54.00
2018-01-19T09:56:56.847Z,53.60
2018-01-19T09:59:25.295Z,52.50
2018-01-19T10:01:53.606Z,52.20
2018-01-19T10:04:21.967Z,52.00
2018-01-19T10:06:50.297Z,51.90
2018-01-19T10:09:18.803Z,51.80
2018-01-19T10:11:46.848Z,50.50
2018-01-19T10:14:15.159Z,50.40
2018-01-19T10:16:43.482Z,51.00
2018-01-19T10:19:11.882Z,51.00
2018-01-19T10:21:40.212Z,49.50
2018-01-19T10:24:09.255Z,50.60
2018-01-19T10:26:36.825Z,47.60
2018-01-19T10:29:05.196Z,47.90
2018-01-19T10:31:33.603Z,48.20
2018-01-19T10:34:01.910Z,48.50
2018-01-19T10:36:30.231Z,46.70
2018-01-19T10:38:58.530Z,46.90
2018-01-19T10:41:26.091Z,46.30
2018-01-19T10:43:54.404Z,45.80
2018-01-19T10:46:22.372Z,45.00
2018-01-19T10:48:50.380Z,45.10
2018-01-19T10:51:17.939Z,45.00
2018-01-19T10:53:45.880Z,44.60
2018-01-19T10:56:14.224Z,44.10
2018-01-19T10:58:43.276Z,43.50
2018-01-19T11:01:10.866Z,42.60
2018-01-19T11:03:39.179Z,43.00
2018-01-19T11:06:07.521Z,43.10
2018-01-19T11:08:35.822Z,42.50
2018-01-19T11:11:04.151Z,41.00
2018-01-19T11:13:32.454Z,41.30
2018-01-19T11:16:01.521Z,42.70
2018-01-19T11:18:29.069Z,42.10
2018-01-19T11:20:57.451Z,43.50
2018-01-19T11:23:25.761Z,43.70
2018-01-19T11:25:54.079Z,42.90
2018-01-19T11:28:22.385Z,43.30
2018-01-19T11:30:50.714Z,43.90
2018-01-19T11:33:19.777Z,45.80
2018-01-19T11:35:47.706Z,45.00
2018-01-19T11:38:15.661Z,43.80
2018-01-19T11:40:44.078Z,44.10
2018-01-19T11:43:12.410Z,44.00
2018-01-19T11:45:40.728Z,43.80
2018-01-19T11:48:09.058Z,44.50
2018-01-19T11:50:37.355Z,45.70
2018-01-19T11:53:05.680Z,47.00
2018-01-19T11:55:33.973Z,48.10
2018-01-19T11:58:01.531Z,48.90
2018-01-19T12:00:29.469Z,49.10
2018-01-19T12:02:57.786Z,49.40
2018-01-19T12:05:26.098Z,48.70
2018-01-19T12:07:54.426Z,49.70
2018-01-19T12:10:22.726Z,49.10
2018-01-19T12:12:51.038Z,49.10
2018-01-19T12:15:19.339Z,49.10
2018-01-19T12:17:47.664Z,50.10
2018-01-19T12:20:15.983Z,50.20
2018-01-19T12:22:44.363Z,49.70
2018-01-19T12:25:12.682Z,49.60
2018-01-19T12:27:41.135Z,49.30
2018-01-19T12:30:09.434Z,49.60
2018-01-19T12:32:37.759Z,49.10
2018-01-19T12:35:06.074Z,48.80
2018-01-19T12:37:34.421Z,48.80
2018-01-19T12:40:02.734Z,48.80
2018-01-19T12:42:31.820Z,50.00
2018-01-19T12:44:59.351Z,49.70
2018-01-19T12:47:27.832Z,49.20
2018-01-19T12:49:56.135Z,49.00
2018-01-19T12:52:24.540Z,44.50
2018-01-19T12:54:52.847Z,42.60
2018-01-19T12:57:21.244Z,41.20
2018-01-19T12:59:49.556Z,40.10
2018-01-19T13:02:17.861Z,38.00
2018-01-19T13:04:46.203Z,39.40
2018-01-19T13:07:14.526Z,40.70
2018-01-19T13:09:42.897Z,40.20
2018-01-19T13:12:11.250Z,40.30
2018-01-19T13:14:39.724Z,39.40
2018-01-19T13:17:07.871Z,39.00
2018-01-19T13:19:36.212Z,39.40
2018-01-19T13:22:04.656Z,38.10
2018-01-19T13:24:32.695Z,37.40
2018-01-19T13:27:01.035Z,36.50
2018-01-19T13:29:29.467Z,37.00
2018-01-19T13:31:58.592Z,38.50
2018-01-19T13:34:26.158Z,39.30
2018-01-19T13:36:54.592Z,40.30
2018-01-19T13:39:22.953Z,40.80
2018-01-19T13:41:51.275Z,41.20
2018-01-19T13:44:20.340Z,43.10
2018-01-19T13:46:47.886Z,44.10
2018-01-19T13:49:16.260Z,42.30
2018-01-19T13:51:44.576Z,41.50
2018-01-19T13:54:12.904Z,42.00
2018-01-19T13:56:41.975Z,42.60
2018-01-19T13:59:09.547Z,42.70
2018-01-19T14:01:37.862Z,42.50
2018-01-19T14:04:06.186Z,45.00
2018-01-19T14:06:34.513Z,46.00
2018-01-19T14:09:02.831Z,47.00
2018-01-19T14:11:31.143Z,48.30
2018-01-19T14:13:59.566Z,49.30
2018-01-19T14:16:27.508Z,50.00
2018-01-19T14:18:55.936Z,50.40
2018-01-19T14:21:24.302Z,51.20
2018-01-19T14:23:52.667Z,51.00
2018-01-19T14:26:20.989Z,51.60
2018-01-19T14:28:50.030Z,52.40
2018-01-19T14:31:17.699Z,51.40
2018-01-19T14:33:46.006Z,51.60
2018-01-19T14:36:14.896Z,51.50
2018-01-19T14:38:42.466Z,51.50
2018-01-19T14:41:10.417Z,51.50
2018-01-19T14:43:38.735Z,52.00
2018-01-19T14:46:06.297Z,51.20
2018-01-19T14:48:34.700Z,51.30
2018-01-19T14:51:03.035Z,51.50
2018-01-19T14:53:30.970Z,51.60
2018-01-19T14:55:59.295Z,52.30
2018-01-19T14:58:27.597Z,52.00
2018-01-19T15:00:55.963Z,52.20
2018-01-19T15:03:23.501Z,52.50
2018-01-19T15:05:51.495Z,52.40
2018-01-19T15:08:19.792Z,52.20
2018-01-19T15:10:48.109Z,53.00
2018-01-19T15:13:16.402Z,53.30
2018-01-19T15:15:44.719Z,53.50
2018-01-19T15:18:13.027Z,53.00
2018-01-19T15:20:42.143Z,53.30
2018-01-19T15:23:10.445Z,53.80
2018-01-19T15:25:38.009Z,54.30
2018-01-19T15:28:06.307Z,55.20
2018-01-19T15:30:34.633Z,54.70
2018-01-19T15:33:02.931Z,54.00
2018-01-19T15:35:31.322Z,53.80
2018-01-19T15:37:59.635Z,53.50
2018-01-19T15:40:28.178Z,53.40
2018-01-19T15:42:56.629Z,53.40
2018-01-19T15:45:24.575Z,53.30
2018-01-19T15:47:52.903Z,52.50
2018-01-19T15:50:21.284Z,52.90
2018-01-19T15:52:49.661Z,52.60
2018-01-19T15:55:17.960Z,53.00
2018-01-19T15:57:46.286Z,54.00
2018-01-19T16:00:14.696Z,54.70
2018-01-19T16:02:43.014Z,55.20
2018-01-19T16:05:11.359Z,55.30
2018-01-19T16:07:39.685Z,55.70
2018-01-19T16:10:07.990Z,56.80
2018-01-19T16:12:36.326Z,57.10
2018-01-19T16:15:04.634Z,57.20
2018-01-19T16:17:32.954Z,57.30
2018-01-19T16:20:01.247Z,57.60
2018-01-19T16:22:30.310Z,58.10
2018-01-19T16:24:57.870Z,57.60
2018-01-19T16:27:26.214Z,58.00
2018-01-19T16:29:54.536Z,57.70
2018-01-19T16:32:22.858Z,57.90
2018-01-19T16:34:51.164Z,58.00
2018-01-19T16:37:19.503Z,58.00
2018-01-19T16:39:48.551Z,58.50
2018-01-19T16:42:16.874Z,58.70
2018-01-19T16:44:44.528Z,58.40
2018-01-19T16:47:12.848Z,58.80
2018-01-19T16:49:41.180Z,58.90
2018-01-19T16:52:09.626Z,59.00
2018-01-19T16:54:37.926Z,59.20
2018-01-19T16:57:06.262Z,59.50
2018-01-19T16:59:35.312Z,60.30
2018-01-19T17:02:02.879Z,59.00
2018-01-19T17:04:31.179Z,59.00
2018-01-19T17:06:58.746Z,59.10
2018-01-19T17:09:26.722Z,59.20
2018-01-19T17:11:55.058Z,59.60
2018-01-19T17:14:24.266Z,60.10
2018-01-19T17:16:51.832Z,59.10
2018-01-19T17:19:19.880Z,59.80
2018-01-19T17:21:47.823Z,60.30
2018-01-19T17:24:16.151Z,61.80
2018-01-19T17:26:44.102Z,61.10
2018-01-19T17:29:12.267Z,61.60
2018-01-19T17:31:40.204Z,61.60
2018-01-19T17:34:08.717Z,62.30
2018-01-19T17:36:37.027Z,61.30
2018-01-19T17:39:05.475Z,61.80
2018-01-19T17:41:33.780Z,61.70
2018-01-19T17:44:02.095Z,61.80
2018-01-19T17:46:30.396Z,61.90
2018-01-19T17:48:58.735Z,61.70
2018-01-19T17:51:27.049Z,61.70
2018-01-19T17:53:55.476Z,61.80
2018-01-19T17:56:24.526Z,62.20
2018-01-19T17:58:52.093Z,61.60
2018-01-19T18:01:20.396Z,61.90
2018-01-19T18:03:48.705Z,62.20
2018-01-19T18:06:17.022Z,62.40
2018-01-19T18:08:46.087Z,62.70
2018-01-19T18:11:13.647Z,62.00
2018-01-19T18:13:41.998Z,61.60
2018-01-19T18:16:10.351Z,61.60
2018-01-19T18:18:38.671Z,61.50
2018-01-19T18:21:07.003Z,62.20
2018-01-19T18:23:36.073Z,62.60
2018-01-19T18:26:03.606Z,62.10
2018-01-19T18:28:31.557Z,62.20
2018-01-19T18:30:59.145Z,62.00
2018-01-19T18:33:27.470Z,62.60
2018-01-19T18:35:55.769Z,62.90
2018-01-19T18:38:24.107Z,63.00
2018-01-19T18:40:52.104Z,63.10
2018-01-19T18:43:19.654Z,62.90
2018-01-19T18:45:47.591Z,62.40
2018-01-19T18:48:16.069Z,62.20
2018-01-19T18:50:44.374Z,61.90
2018-01-19T18:53:12.679Z,62.30
2018-01-19T18:55:41.007Z,62.50
2018-01-19T18:58:09.319Z,62.40
2018-01-19T19:00:37.677Z,62.80
2018-01-19T19:03:06.018Z,63.00
2018-01-19T19:05:34.406Z,62.80
2018-01-19T19:08:02.720Z,63.50
2018-01-19T19:10:31.094Z,63.30
2018-01-19T19:12:59.017Z,63.10
2018-01-19T19:15:26.973Z,63.00
2018-01-19T19:17:54.954Z,62.70
2018-01-19T19:20:22.965Z,63.40
2018-01-19T19:22:51.312Z,64.30
2018-01-19T19:25:20.429Z,64.90
2018-01-19T19:27:48.365Z,63.90
2018-01-19T19:30:15.987Z,63.60
2018-01-19T19:32:44.290Z,63.40
2018-01-19T19:35:12.631Z,63.50
2018-01-19T19:37:41.046Z,63.10
2018-01-19T19:40:09.388Z,63.00
2018-01-19T19:42:37.775Z,64.60
2018-01-19T19:45:06.098Z,64.40
2018-01-19T19:47:34.407Z,63.90
2018-01-19T19:50:02.728Z,63.50
2018-01-19T19:52:30.312Z,63.20
2018-01-19T19:54:58.450Z,63.50
2018-01-19T19:57:26.538Z,63.30
2018-01-19T19:59:54.841Z,63.00
2018-01-19T20:02:23.575Z,62.60
2018-01-19T20:04:51.589Z,62.50
2018-01-19T20:07:19.933Z,62.20
2018-01-19T20:09:48.269Z,62.10
2018-01-19T20:12:16.601Z,62.30
2018-01-19T20:14:44.981Z,62.20
2018-01-19T20:17:13.357Z,61.80
2018-01-19T20:19:41.657Z,64.40
2018-01-19T20:22:09.977Z,61.50
2018-01-19T20:24:38.280Z,61.40
2018-01-19T20:27:06.673Z,61.70
2018-01-19T20:29:35.768Z,62.90
2018-01-19T20:32:03.343Z,62.20
2018-01-19T20:34:31.720Z,62.20
2018-01-19T20:37:00.830Z,62.60
2018-01-19T20:39:28.406Z,61.80
2018-01-19T20:41:56.826Z,61.80
2018-01-19T20:44:25.018Z,61.60
2018-01-19T20:46:53.411Z,61.50
2018-01-19T20:49:21.795Z,61.20
2018-01-19T20:51:50.184Z,61.30
2018-01-19T20:54:18.502Z,61.40
2018-01-19T20:56:46.587Z,61.30
2018-01-19T20:59:14.894Z,61.60
2018-01-19T21:01:43.964Z,62.60
2018-01-19T21:04:11.570Z,62.40
2018-01-19T21:06:39.894Z,63.30
2018-01-19T21:09:08.205Z,63.70
2018-01-19T21:11:36.533Z,63.30
2018-01-19T21:14:05.188Z,63.20
2018-01-19T21:16:33.184Z,62.80
2018-01-19T21:19:01.541Z,62.60
2018-01-19T21:21:29.924Z,62.70
2018-01-19T21:23:57.914Z,62.50
2018-01-19T21:26:26.427Z,62.40
2018-01-19T21:28:54.791Z,62.40
2018-01-19T21:31:23.159Z,62.50
2018-01-19T21:33:51.480Z,62.40
2018-01-19T21:36:19.824Z,62.60
2018-01-19T21:38:48.224Z,62.80
2018-01-19T21:41:16.154Z,62.60
2018-01-19T21:43:44.542Z,62.70
2018-01-19T21:46:12.844Z,62.60
2018-01-19T21:48:41.773Z,62.80
2018-01-19T21:51:09.712Z,63.10
2018-01-19T21:53:38.157Z,63.40
2018-01-19T21:56:06.201Z,63.50
2018-01-19T21:58:34.712Z,63.50
2018-01-19T22:01:03.050Z,64.00
2018-01-19T22:03:31.384Z,64.00
2018-01-19T22:05:59.727Z,63.80
2018-01-19T22:08:27.723Z,64.00
2018-01-19T22:10:56.118Z,63.90
2018-01-19T22:13:24.504Z,63.60
2018-01-19T22:15:52.870Z,62.70
2018-01-19T22:18:21.218Z,63.70
2018-01-19T22:20:49.582Z,63.80
2018-01-19T22:23:17.943Z,64.00
2018-01-19T22:25:47.008Z,64.50
2018-01-19T22:28:14.671Z,63.50
2018-01-19T22:30:42.641Z,63.30
2018-01-19T22:33:10.970Z,63.60
2018-01-19T22:35:39.350Z,63.80
2018-01-19T22:38:07.738Z,63.30
2018-01-19T22:40:36.149Z,63.60
2018-01-19T22:43:04.519Z,63.40
2018-01-19T22:45:32.930Z,63.50
2018-01-19T22:48:00.988Z,63.90
2018-01-19T22:50:29.365Z,64.10
2018-01-19T22:52:57.666Z,64.00
2018-01-19T22:55:26.061Z,63.80
2018-01-19T22:57:54.429Z,63.40
2018-01-19T23:00:23.527Z,64.00
2018-01-19T23:02:51.129Z,62.80
2018-01-19T23:05:19.514Z,62.90
2018-01-19T23:07:47.864Z,62.60
2018-01-19T23:10:15.894Z,63.30
2018-01-19T23:12:44.254Z,63.10
2018-01-19T23:15:12.675Z,62.80
2018-01-19T23:17:41.027Z,63.50
2018-01-19T23:20:09.392Z,62.80
2018-01-19T23:22:37.758Z,62.70
2018-01-19T23:25:06.065Z,62.80
2018-01-19T23:27:34.385Z,62.60
2018-01-19T23:30:02.744Z,62.90
2018-01-19T23:32:31.085Z,62.90
2018-01-19T23:34:59.448Z,63.20
2018-01-19T23:37:27.746Z,63.30
2018-01-19T23:39:56.071Z,63.30
2018-01-19T23:42:24.414Z,63.20
2018-01-19T23:44:52.757Z,63.30
2018-01-19T23:47:21.062Z,62.80
2018-01-19T23:49:49.433Z,63.30
2018-01-19T23:52:17.372Z,62.90
2018-01-19T23:54:45.768Z,63.20
2018-01-19T23:57:14.252Z,63.70
2018-01-19T23:59:42.620Z,63.00
